createdAt,value
2018-12-25T00:03:45.784Z,102723.62
2018-12-25T00:06:34.673Z,102717.98
2018-12-25T00:09:23.563Z,102720.16
2018-12-25T00:15:45.120Z,102715.34
2018-12-25T00:21:23.689Z,102708.86
2018-12-25T00:24:12.552Z,102690.66
2018-12-25T00:27:01.513Z,102700.18
2018-12-25T00:29:50.392Z,102695.48
2018-12-25T00:32:39.670Z,102673.79
2018-12-25T00:35:47.595Z,102692.83
2018-12-25T00:38:36.545Z,102701.93
2018-12-25T00:41:25.418Z,102711.42
2018-12-25T00:44:33.474Z,102707.96
2018-12-25T00:47:15.571Z,102720.47
2018-12-25T00:50:04.721Z,102681.84
2018-12-25T00:52:53.748Z,102721.80
2018-12-25T00:55:44.472Z,102724.41
2018-12-25T01:01:22.317Z,102714.50
2018-12-25T01:04:10.384Z,102721.00
2018-12-25T01:06:59.365Z,102728.77
2018-12-25T01:09:50.678Z,102700.97
2018-12-25T01:12:39.497Z,102730.92
2018-12-25T01:15:26.793Z,102730.47
2018-12-25T01:18:15.642Z,102723.59
2018-12-25T01:21:03.614Z,102737.86
2018-12-25T01:23:52.454Z,102740.02
2018-12-25T01:29:27.377Z,102736.16
2018-12-25T01:32:16.318Z,102736.55
2018-12-25T01:35:05.657Z,102737.01
2018-12-25T01:37:54.646Z,102733.99
2018-12-25T01:43:51.451Z,102733.09
2018-12-25T01:46:40.334Z,102724.89
2018-12-25T01:49:22.494Z,102739.09
2018-12-25T01:55:06.891Z,102735.63
2018-12-25T02:03:44.371Z,102735.20
2018-12-25T02:06:33.246Z,102735.69
2018-12-25T02:15:11.591Z,102745.23
2018-12-25T02:18:00.440Z,102745.66
2018-12-25T02:25:07.038Z,102747.38
2018-12-25T02:27:55.897Z,102744.78
2018-12-25T02:40:15.056Z,102756.00
2018-12-25T02:43:21.680Z,102762.45
2018-12-25T02:46:10.595Z,102758.59
2018-12-25T02:48:52.071Z,102750.84
2018-12-25T02:54:55.171Z,102734.81
2018-12-25T02:57:44.058Z,102741.69
2018-12-25T03:00:32.921Z,102742.98
2018-12-25T03:03:21.809Z,102735.63
2018-12-25T03:06:10.679Z,102733.48
2018-12-25T03:08:59.557Z,102732.22
2018-12-25T03:11:48.490Z,102732.16
2018-12-25T03:14:37.321Z,102725.68
2018-12-25T03:17:43.961Z,102726.10
2018-12-25T03:20:32.824Z,102726.56
2018-12-25T03:23:21.722Z,102719.62
2018-12-25T03:26:10.604Z,102724.84
2018-12-25T03:32:10.677Z,102721.42
2018-12-25T03:37:45.586Z,102704.58
2018-12-25T03:40:34.469Z,102701.47
2018-12-25T03:43:23.383Z,102710.09
2018-12-25T03:46:18.648Z,102655.48
2018-12-25T03:52:01.208Z,102692.38
2018-12-25T03:54:50.044Z,102694.94
2018-12-25T04:00:32.855Z,102694.13
2018-12-25T04:03:21.737Z,102707.03
2018-12-25T04:06:10.615Z,102697.14
2018-12-25T04:08:57.630Z,102702.75
2018-12-25T04:14:42.165Z,102701.03
2018-12-25T04:18:08.224Z,102673.66
2018-12-25T04:20:57.109Z,102706.63
2018-12-25T04:23:46.014Z,102704.47
2018-12-25T04:26:34.900Z,102706.67
2018-12-25T04:29:23.791Z,102714.41
2018-12-25T04:32:12.843Z,102708.80
2018-12-25T04:35:01.752Z,102704.89
2018-12-25T04:37:50.616Z,102694.55
2018-12-25T04:40:39.523Z,102698.02
2018-12-25T04:43:28.392Z,102711.39
2018-12-25T04:46:17.272Z,102711.00
2018-12-25T04:48:59.140Z,102712.30
2018-12-25T04:51:48.045Z,102713.63
2018-12-25T04:57:44.729Z,102675.45
2018-12-25T05:00:33.608Z,102699.36
2018-12-25T05:06:17.237Z,102697.19
2018-12-25T05:09:28.011Z,102698.49
2018-12-25T05:15:24.725Z,102704.94
2018-12-25T05:18:13.669Z,102702.78
2018-12-25T05:21:02.540Z,102681.54
2018-12-25T05:23:51.404Z,102707.09
2018-12-25T05:29:57.283Z,102707.06
2018-12-25T05:32:46.145Z,102706.22
2018-12-25T05:38:39.170Z,102711.84
2018-12-25T05:44:30.316Z,102709.73
2018-12-25T05:47:20.390Z,102706.72
2018-12-25T05:50:09.542Z,102711.03
2018-12-25T05:52:58.413Z,102705.39
2018-12-25T05:55:47.282Z,102663.34
2018-12-25T05:58:36.186Z,102711.48
2018-12-25T06:01:25.074Z,102712.34
2018-12-25T06:07:08.929Z,102704.17
2018-12-25T06:09:57.799Z,102708.06
2018-12-25T06:12:46.676Z,102703.30
2018-12-25T06:15:35.554Z,102699.39
2018-12-25T06:18:24.452Z,102704.16
2018-12-25T06:21:31.321Z,102707.62
2018-12-25T06:24:20.211Z,102700.23
2018-12-25T06:27:09.093Z,102713.62
2018-12-25T06:29:58.417Z,102708.89
2018-12-25T06:32:47.289Z,102714.50
2018-12-25T06:35:36.177Z,102707.59
2018-12-25T06:38:25.072Z,102719.65
2018-12-25T06:41:13.927Z,102714.47
2018-12-25T06:44:01.065Z,102706.32
2018-12-25T06:46:49.995Z,102704.57
2018-12-25T06:49:31.644Z,102709.75
2018-12-25T06:52:20.511Z,102702.41
2018-12-25T06:58:02.164Z,102703.27
2018-12-25T07:00:50.327Z,102696.82
2018-12-25T07:03:39.186Z,102691.19
2018-12-25T07:06:28.076Z,102693.36
2018-12-25T07:10:10.536Z,102702.00
2018-12-25T07:15:54.219Z,102704.14
2018-12-25T07:18:43.099Z,102693.78
2018-12-25T07:25:22.857Z,102689.39
2018-12-25T07:28:11.754Z,102696.34
2018-12-25T07:31:18.403Z,102690.74
2018-12-25T07:34:07.301Z,102692.03
2018-12-25T07:36:56.175Z,102676.91
2018-12-25T07:42:36.539Z,102680.80
2018-12-25T07:46:01.529Z,102684.69
2018-12-25T07:48:43.674Z,102690.29
2018-12-25T07:57:33.855Z,102687.70
2018-12-25T08:00:34.805Z,102693.75
2018-12-25T08:03:13.345Z,102698.52
2018-12-25T08:06:02.203Z,102694.17
2018-12-25T08:08:51.081Z,102698.97
2018-12-25T08:11:57.653Z,102702.83
2018-12-25T08:14:46.805Z,102713.62
2018-12-25T08:17:35.692Z,102722.70
2018-12-25T08:20:24.594Z,102717.93
2018-12-25T08:26:03.057Z,102718.41
2018-12-25T08:28:51.384Z,102717.53
2018-12-25T08:31:40.197Z,102714.94
2018-12-25T08:34:29.062Z,102713.67
2018-12-25T08:37:17.938Z,102717.53
2018-12-25T08:40:06.855Z,102726.19
2018-12-25T08:42:55.767Z,102728.33
2018-12-25T08:45:45.068Z,102722.69
2018-12-25T08:48:39.736Z,102721.42
2018-12-25T08:51:28.627Z,102733.12
2018-12-25T08:58:13.581Z,102734.41
2018-12-25T09:04:58.348Z,102727.96
2018-12-25T09:07:47.222Z,102727.95
2018-12-25T09:13:42.497Z,102717.53
2018-12-25T09:16:29.518Z,102717.53
2018-12-25T09:19:16.741Z,102709.78
2018-12-25T09:25:17.044Z,102697.77
2018-12-25T09:28:05.948Z,102696.53
2018-12-25T09:30:54.845Z,102694.37
2018-12-25T09:37:32.533Z,102697.87
2018-12-25T09:40:21.396Z,102685.30
2018-12-25T09:43:28.274Z,102655.34
2018-12-25T09:46:17.162Z,102687.47
2018-12-25T09:48:59.514Z,102684.89
2018-12-25T09:51:54.506Z,102676.70
2018-12-25T09:54:40.372Z,102672.39
2018-12-25T09:57:28.451Z,102674.98
2018-12-25T10:03:25.021Z,102678.48
2018-12-25T10:06:32.068Z,102695.34
2018-12-25T10:12:10.544Z,102703.11
2018-12-25T10:18:10.520Z,102715.66
2018-12-25T10:20:59.385Z,102710.06
2018-12-25T10:23:47.331Z,102704.49
2018-12-25T10:29:50.329Z,102704.94
2018-12-25T10:33:16.410Z,102708.00
2018-12-25T10:36:05.279Z,102706.28
2018-12-25T10:41:46.939Z,102707.14
2018-12-25T10:44:35.805Z,102707.55
2018-12-25T10:50:25.945Z,102691.53
2018-12-25T10:53:14.878Z,102687.69
2018-12-25T11:03:43.618Z,102688.11
2018-12-25T11:06:32.499Z,102690.73
2018-12-25T11:09:21.394Z,102695.02
2018-12-25T11:12:10.384Z,102701.11
2018-12-25T11:14:59.277Z,102698.53
2018-12-25T11:20:41.404Z,102695.95
2018-12-25T11:23:48.151Z,102701.58
2018-12-25T11:38:26.518Z,102679.17
2018-12-25T11:54:55.688Z,102670.52
2018-12-25T11:57:38.667Z,102674.84
2018-12-25T12:00:48.253Z,102674.42
2018-12-25T12:03:37.422Z,102672.67
2018-12-25T12:06:26.319Z,102674.00
2018-12-25T12:12:09.100Z,102683.53
2018-12-25T12:14:58.613Z,102677.88
2018-12-25T12:17:47.529Z,102678.35
2018-12-25T12:20:57.243Z,102677.92
2018-12-25T12:23:46.568Z,102677.92
2018-12-25T12:26:36.418Z,102675.74
2018-12-25T12:29:25.728Z,102668.39
2018-12-25T12:32:32.506Z,102671.42
2018-12-25T12:39:45.588Z,102672.70
2018-12-25T12:42:53.056Z,102671.41
2018-12-25T12:49:15.747Z,102638.52
2018-12-25T12:52:00.400Z,102673.19
2018-12-25T12:55:12.325Z,102636.77
2018-12-25T12:57:40.209Z,102674.91
2018-12-25T13:00:52.852Z,102678.34
2018-12-25T13:03:41.938Z,102680.55
2018-12-25T13:06:11.924Z,102673.17
2018-12-25T13:08:42.010Z,102660.63
2018-12-25T13:11:12.459Z,102670.13
2018-12-25T13:13:43.328Z,102681.40
2018-12-25T13:16:14.726Z,102678.38
2018-12-25T13:18:45.283Z,102676.19
2018-12-25T13:21:15.685Z,102670.55
2018-12-25T13:23:47.082Z,102670.55
2018-12-25T13:26:16.838Z,102664.06
2018-12-25T13:28:46.564Z,102671.00
2018-12-25T13:31:16.652Z,102666.25
2018-12-25T13:33:47.480Z,102665.40
2018-12-25T13:36:17.282Z,102671.87
2018-12-25T13:38:46.852Z,102670.16
2018-12-25T13:41:17.466Z,102671.43
2018-12-25T13:43:47.297Z,102669.70
2018-12-25T13:46:17.864Z,102673.14
2018-12-25T13:48:47.647Z,102667.97
2018-12-25T13:51:17.172Z,102668.83
2018-12-25T13:53:48.509Z,102669.27
2018-12-25T13:56:18.060Z,102671.43
2018-12-25T13:58:47.642Z,102677.50
2018-12-25T14:01:20.733Z,102673.19
2018-12-25T14:03:51.848Z,102681.41
2018-12-25T14:06:21.802Z,102675.34
2018-12-25T14:08:51.923Z,102678.34
2018-12-25T14:11:23.677Z,102675.33
2018-12-25T14:13:54.287Z,102680.08
2018-12-25T14:16:23.891Z,102680.09
2018-12-25T14:18:53.452Z,102683.09
2018-12-25T14:21:23.000Z,102684.39
2018-12-25T14:23:52.643Z,102686.12
2018-12-25T14:26:26.726Z,102690.44
2018-12-25T14:28:56.834Z,102691.33
2018-12-25T14:31:27.271Z,102689.58
2018-12-25T14:33:57.202Z,102682.66
2018-12-25T14:36:28.449Z,102685.26
2018-12-25T14:38:57.971Z,102684.39
2018-12-25T14:41:27.698Z,102689.16
2018-12-25T14:44:05.130Z,102680.47
2018-12-25T14:46:33.374Z,102677.44
2018-12-25T14:49:04.038Z,102682.22
2018-12-25T14:51:34.405Z,102681.76
2018-12-25T14:54:04.970Z,102683.49
2018-12-25T14:56:41.740Z,102676.14
2018-12-25T14:59:13.161Z,102673.98
2018-12-25T15:01:42.865Z,102670.50
2018-12-25T15:04:15.282Z,102674.83
2018-12-25T15:06:44.908Z,102671.32
2018-12-25T15:09:14.436Z,102677.81
2018-12-25T15:11:44.943Z,102676.96
2018-12-25T15:14:14.518Z,102672.20
2018-12-25T15:16:46.270Z,102672.63
2018-12-25T15:19:16.373Z,102676.07
2018-12-25T15:21:45.927Z,102678.27
2018-12-25T15:24:18.506Z,102679.55
2018-12-25T15:26:48.067Z,102673.91
2018-12-25T15:29:18.090Z,102669.19
2018-12-25T15:31:48.044Z,102673.52
2018-12-25T15:34:17.576Z,102675.23
2018-12-25T15:36:48.863Z,102683.45
2018-12-25T15:39:21.964Z,102685.62
2018-12-25T15:41:51.586Z,102686.02
2018-12-25T15:44:24.426Z,102684.74
2018-12-25T15:46:56.264Z,102684.32
2018-12-25T15:49:26.580Z,102685.62
2018-12-25T15:51:56.604Z,102689.91
2018-12-25T15:54:26.969Z,102684.72
2018-12-25T15:57:01.181Z,102685.99
2018-12-25T15:59:31.381Z,102690.74
2018-12-25T16:02:01.051Z,102680.78
2018-12-25T16:04:31.248Z,102684.63
2018-12-25T16:07:00.865Z,102686.38
2018-12-25T16:09:31.784Z,102693.73
2018-12-25T16:12:01.612Z,102691.59
2018-12-25T16:14:31.511Z,102689.42
2018-12-25T16:17:01.630Z,102685.08
2018-12-25T16:19:31.591Z,102690.21
2018-12-25T16:22:01.910Z,102696.25
2018-12-25T16:24:31.879Z,102694.54
2018-12-25T16:27:01.898Z,102698.01
2018-12-25T16:29:37.205Z,102699.70
2018-12-25T16:32:08.453Z,102690.23
2018-12-25T16:34:39.183Z,102693.24
2018-12-25T16:37:09.387Z,102694.12
2018-12-25T16:39:40.217Z,102698.43
2018-12-25T16:42:13.071Z,102699.28
2018-12-25T16:44:43.592Z,102707.89
2018-12-25T16:47:14.763Z,102703.58
2018-12-25T16:49:47.334Z,102710.49
2018-12-25T16:52:21.023Z,102713.94
2018-12-25T16:54:50.727Z,102711.77
2018-12-25T16:57:22.009Z,102716.94
2018-12-25T16:59:51.963Z,102718.67
2018-12-25T17:02:23.183Z,102718.66
2018-12-25T17:04:54.102Z,102719.55
2018-12-25T17:07:24.180Z,102726.88
2018-12-25T17:09:54.247Z,102719.11
2018-12-25T17:15:01.834Z,102714.77
2018-12-25T17:17:31.399Z,102712.59
2018-12-25T17:20:01.223Z,102711.73
2018-12-25T17:22:32.397Z,102713.02
2018-12-25T17:25:05.830Z,102722.93
2018-12-25T17:27:35.337Z,102716.81
2018-12-25T17:33:02.802Z,102709.09
2018-12-25T17:35:32.977Z,102716.05
2018-12-25T17:38:04.462Z,102709.58
2018-12-25T17:40:34.022Z,102713.47
2018-12-25T17:43:05.560Z,102711.27
2018-12-25T17:45:36.806Z,102709.53
2018-12-25T17:48:06.715Z,102705.64
2018-12-25T17:50:36.603Z,102700.37
2018-12-25T17:53:08.057Z,102696.84
2018-12-25T17:55:42.181Z,102702.53
2018-12-25T17:58:09.707Z,102699.02
2018-12-25T18:00:39.217Z,102703.78
2018-12-25T18:03:10.178Z,102702.03
2018-12-25T18:05:42.171Z,102701.64
2018-12-25T18:08:12.090Z,102701.16
2018-12-25T18:10:45.006Z,102698.53
2018-12-25T18:13:17.082Z,102691.66
2018-12-25T18:15:48.490Z,102695.97
2018-12-25T18:18:18.304Z,102701.16
2018-12-25T18:20:48.448Z,102703.72
2018-12-25T18:23:18.577Z,102702.85
2018-12-25T18:25:48.265Z,102706.30
2018-12-25T18:28:18.439Z,102708.89
2018-12-25T18:30:49.918Z,102716.20
2018-12-25T18:33:20.121Z,102714.94
2018-12-25T18:35:49.904Z,102715.37
2018-12-25T18:40:59.374Z,102718.81
2018-12-25T18:43:28.905Z,102712.77
2018-12-25T18:46:00.153Z,102714.44
2018-12-25T18:48:30.726Z,102707.09
2018-12-25T18:51:03.779Z,102709.28
2018-12-25T18:53:33.391Z,102708.41
2018-12-25T18:56:04.584Z,102713.59
2018-12-25T18:58:34.148Z,102707.45
2018-12-25T19:01:04.875Z,102708.23
2018-12-25T19:03:34.451Z,102703.96
2018-12-25T19:06:04.061Z,102704.41
2018-12-25T19:08:33.667Z,102700.44
2018-12-25T19:11:03.208Z,102696.55
2018-12-25T19:13:32.807Z,102694.89
2018-12-25T19:16:02.432Z,102700.07
2018-12-25T19:18:32.233Z,102700.98
2018-12-25T19:23:35.853Z,102695.80
2018-12-25T19:26:05.639Z,102701.84
2018-12-25T19:28:35.183Z,102697.95
2018-12-25T19:31:04.747Z,102705.77
2018-12-25T19:33:34.289Z,102698.86
2018-12-25T19:36:03.961Z,102697.59
2018-12-25T19:38:35.047Z,102697.56
2018-12-25T19:41:04.599Z,102705.28
2018-12-25T19:43:35.042Z,102709.62
2018-12-25T19:46:04.686Z,102705.73
2018-12-25T19:48:34.204Z,102711.34
2018-12-25T19:51:03.823Z,102699.23
2018-12-25T19:53:38.034Z,102707.87
2018-12-25T19:56:06.199Z,102708.21
2018-12-25T19:58:35.734Z,102711.23
2018-12-25T20:01:07.133Z,102705.63
2018-12-25T20:03:41.348Z,102707.76
2018-12-25T20:06:33.537Z,102704.78
2018-12-25T20:09:29.763Z,102694.44
2018-12-25T20:12:23.519Z,102693.95
2018-12-25T20:15:23.025Z,102687.06
2018-12-25T20:18:31.664Z,102689.62
2018-12-25T20:21:32.868Z,102686.12
2018-12-25T20:24:24.547Z,102688.30
2018-12-25T20:27:10.852Z,102688.27
2018-12-25T20:30:09.654Z,102688.66
2018-12-25T20:33:01.636Z,102703.78
2018-12-25T20:35:50.675Z,102690.38
2018-12-25T20:38:56.763Z,102693.00
2018-12-25T20:41:55.839Z,102687.78
2018-12-25T20:44:56.830Z,102689.50
2018-12-25T20:47:51.514Z,102687.72
2018-12-25T20:50:45.822Z,102693.75
2018-12-25T20:53:27.918Z,102692.03
2018-12-25T20:56:14.635Z,102691.13
2018-12-25T20:59:14.732Z,102685.94
2018-12-25T21:02:26.870Z,102690.25
2018-12-25T21:05:10.430Z,102688.05
2018-12-25T21:08:00.022Z,102681.57
2018-12-25T21:11:04.828Z,102688.89
2018-12-25T21:14:13.939Z,102691.05
2018-12-25T21:17:10.473Z,102686.65
2018-12-25T21:20:16.942Z,102690.95
2018-12-25T21:23:42.193Z,102687.07
2018-12-25T21:27:09.255Z,102679.66
2018-12-25T21:29:41.160Z,102675.28
2018-12-25T21:32:12.488Z,102686.12
2018-12-25T21:34:42.382Z,102684.83
2018-12-25T21:37:17.878Z,102689.97
2018-12-25T21:39:47.530Z,102687.80
2018-12-25T21:42:18.173Z,102686.05
2018-12-25T21:44:50.399Z,102682.17
2018-12-25T21:47:22.059Z,102668.28
2018-12-25T21:49:53.819Z,102663.48
2018-12-25T21:52:24.583Z,102672.92
2018-12-25T21:54:55.095Z,102678.52
2018-12-25T21:57:29.852Z,102669.88
2018-12-25T22:00:00.642Z,102666.84
2018-12-25T22:02:30.840Z,102662.49
2018-12-25T22:05:01.056Z,102662.42
2018-12-25T22:07:31.931Z,102657.70
2018-12-25T22:10:02.439Z,102657.20
2018-12-25T22:12:33.163Z,102658.45
2018-12-25T22:15:03.894Z,102651.48
2018-12-25T22:17:37.752Z,102654.91
2018-12-25T22:20:19.862Z,102652.66
2018-12-25T22:22:49.792Z,102649.66
2018-12-25T22:25:27.021Z,102647.45
2018-12-25T22:27:52.848Z,102647.36
2018-12-25T22:30:23.511Z,102638.22
2018-12-25T22:32:54.431Z,102644.22
2018-12-25T22:35:24.199Z,102635.03
2018-12-25T22:37:56.859Z,102643.21
2018-12-25T22:40:30.637Z,102644.45
2018-12-25T22:43:00.315Z,102651.30
2018-12-25T22:45:30.600Z,102645.33
2018-12-25T22:48:01.456Z,102643.52
2018-12-25T22:50:32.423Z,102641.36
2018-12-25T22:53:02.715Z,102630.94
2018-12-25T22:55:35.931Z,102628.30
2018-12-25T22:58:06.046Z,102629.13
2018-12-25T23:00:36.615Z,102634.29
2018-12-25T23:03:06.842Z,102648.88
2018-12-25T23:05:37.682Z,102648.41
2018-12-25T23:08:07.830Z,102650.16
2018-12-25T23:10:38.205Z,102654.82
2018-12-25T23:13:10.290Z,102656.06
2018-12-25T23:15:40.563Z,102655.64
2018-12-25T23:18:13.530Z,102650.06
2018-12-25T23:20:43.474Z,102655.65
2018-12-25T23:23:13.502Z,102646.19
2018-12-25T23:25:45.027Z,102651.81
2018-12-25T23:28:15.898Z,102649.97
2018-12-25T23:30:46.862Z,102648.20
2018-12-25T23:33:16.785Z,102654.20
2018-12-25T23:35:49.719Z,102646.49
2018-12-25T23:38:20.796Z,102644.33
2018-12-25T23:40:51.634Z,102644.28
2018-12-25T23:43:22.566Z,102644.69
2018-12-25T23:45:54.760Z,102652.75
2018-12-25T23:48:25.597Z,102650.16
2018-12-25T23:50:56.288Z,102649.23
2018-12-25T23:53:27.195Z,102645.72
2018-12-25T23:55:58.088Z,102650.41
2018-12-25T23:58:30.477Z,102653.36
